sensor_id;sensor_type;location;lat;lon;timestamp;temperature;humidity
17425;DHT22;8830;50.978;5.058;2023-03-01T00:02:07;0.90;99.90
17425;DHT22;8830;50.978;5.058;2023-03-01T00:04:35;0.90;99.90
17425;DHT22;8830;50.978;5.058;2023-03-01T00:07:02;0.80;99.90
17425;DHT22;8830;50.978;5.058;2023-03-01T00:09:30;0.90;99.90
17425;DHT22;8830;50.978;5.058;2023-03-01T00:11:57;0.80;99.90
17425;DHT22;8830;50.978;5.058;2023-03-01T00:14:25;0.80;99.90
17425;DHT22;8830;50.978;5.058;2023-03-01T00:16:52;1.10;99.90
17425;DHT22;8830;50.978;5.058;2023-03-01T00:19:20;0.90;99.90
17425;DHT22;8830;50.978;5.058;2023-03-01T00:21:48;3.20;99.90
17425;DHT22;8830;50.978;5.058;2023-03-01T00:24:15;2.00;99.90
17425;DHT22;8830;50.978;5.058;2023-03-01T00:29:10;0.80;99.90
17425;DHT22;8830;50.978;5.058;2023-03-01T00:31:37;0.80;99.90
17425;DHT22;8830;50.978;5.058;2023-03-01T00:34:05;0.70;99.90
17425;DHT22;8830;50.978;5.058;2023-03-01T00:36:34;0.80;99.90
17425;DHT22;8830;50.978;5.058;2023-03-01T00:39:04;0.70;99.90
17425;DHT22;8830;50.978;5.058;2023-03-01T00:41:31;0.70;99.90
17425;DHT22;8830;50.978;5.058;2023-03-01T00:44:00;1.70;99.90
17425;DHT22;8830;50.978;5.058;2023-03-01T00:46:27;1.80;99.90
17425;DHT22;8830;50.978;5.058;2023-03-01T00:48:55;0.60;99.90
17425;DHT22;8830;50.978;5.058;2023-03-01T00:51:24;0.80;99.90
17425;DHT22;8830;50.978;5.058;2023-03-01T00:53:53;0.60;99.90
17425;DHT22;8830;50.978;5.058;2023-03-01T00:56:23;0.50;99.90
17425;DHT22;8830;50.978;5.058;2023-03-01T00:58:50;1.50;99.90
17425;DHT22;8830;50.978;5.058;2023-03-01T01:01:19;2.30;99.90
17425;DHT22;8830;50.978;5.058;2023-03-01T01:03:47;0.50;99.90
17425;DHT22;8830;50.978;5.058;2023-03-01T01:06:18;0.50;99.90
17425;DHT22;8830;50.978;5.058;2023-03-01T01:08:46;0.50;99.90
17425;DHT22;8830;50.978;5.058;2023-03-01T01:11:13;0.50;99.90
17425;DHT22;8830;50.978;5.058;2023-03-01T01:13:43;1.00;99.90
17425;DHT22;8830;50.978;5.058;2023-03-01T01:16:10;0.40;99.90
17425;DHT22;8830;50.978;5.058;2023-03-01T01:18:38;0.40;99.90
17425;DHT22;8830;50.978;5.058;2023-03-01T01:21:07;2.20;99.90
17425;DHT22;8830;50.978;5.058;2023-03-01T01:23:34;0.30;99.90
17425;DHT22;8830;50.978;5.058;2023-03-01T01:26:05;2.00;99.90
17425;DHT22;8830;50.978;5.058;2023-03-01T01:28:33;0.30;99.90
17425;DHT22;8830;50.978;5.058;2023-03-01T01:31:01;0.30;99.90
17425;DHT22;8830;50.978;5.058;2023-03-01T01:33:28;0.30;99.90
17425;DHT22;8830;50.978;5.058;2023-03-01T01:35:55;0.20;99.90
17425;DHT22;8830;50.978;5.058;2023-03-01T01:40:50;0.20;99.90
17425;DHT22;8830;50.978;5.058;2023-03-01T01:43:20;0.10;99.90
17425;DHT22;8830;50.978;5.058;2023-03-01T01:45:49;0.00;99.90
17425;DHT22;8830;50.978;5.058;2023-03-01T01:48:21;0.00;99.90
17425;DHT22;8830;50.978;5.058;2023-03-01T01:50:54;0.10;99.90
17425;DHT22;8830;50.978;5.058;2023-03-01T01:53:22;0.00;99.90
17425;DHT22;8830;50.978;5.058;2023-03-01T01:55:53;0.00;99.90
17425;DHT22;8830;50.978;5.058;2023-03-01T01:58:24;0.00;99.90
17425;DHT22;8830;50.978;5.058;2023-03-01T02:00:51;0.00;99.90
17425;DHT22;8830;50.978;5.058;2023-03-01T02:03:24;0.00;99.90
17425;DHT22;8830;50.978;5.058;2023-03-01T02:05:58;0.10;99.90
17425;DHT22;8830;50.978;5.058;2023-03-01T02:08:29;0.00;99.90
17425;DHT22;8830;50.978;5.058;2023-03-01T02:10:58;0.10;99.90
17425;DHT22;8830;50.978;5.058;2023-03-01T02:13:26;0.60;99.90
17425;DHT22;8830;50.978;5.058;2023-03-01T02:15:53;0.10;99.90
17425;DHT22;8830;50.978;5.058;2023-03-01T02:18:23;-0.10;99.90
17425;DHT22;8830;50.978;5.058;2023-03-01T02:21:08;-0.10;99.90
17425;DHT22;8830;50.978;5.058;2023-03-01T02:23:37;-0.10;99.90
17425;DHT22;8830;50.978;5.058;2023-03-01T02:26:07;-0.20;99.90
17425;DHT22;8830;50.978;5.058;2023-03-01T02:28:40;-0.20;99.90
17425;DHT22;8830;50.978;5.058;2023-03-01T02:31:09;-0.20;99.90
17425;DHT22;8830;50.978;5.058;2023-03-01T02:33:55;-0.20;99.90
17425;DHT22;8830;50.978;5.058;2023-03-01T02:36:25;-0.20;99.90
17425;DHT22;8830;50.978;5.058;2023-03-01T02:38:57;-0.30;99.90
17425;DHT22;8830;50.978;5.058;2023-03-01T02:41:27;0.30;99.90
17425;DHT22;8830;50.978;5.058;2023-03-01T02:43:56;0.00;99.90
17425;DHT22;8830;50.978;5.058;2023-03-01T02:46:25;0.00;99.90
17425;DHT22;8830;50.978;5.058;2023-03-01T02:48:55;-0.30;99.90
17425;DHT22;8830;50.978;5.058;2023-03-01T02:51:34;-0.30;99.90
17425;DHT22;8830;50.978;5.058;2023-03-01T02:54:15;-0.30;99.90
17425;DHT22;8830;50.978;5.058;2023-03-01T02:56:45;-0.40;99.90
17425;DHT22;8830;50.978;5.058;2023-03-01T02:59:19;-0.40;99.90
17425;DHT22;8830;50.978;5.058;2023-03-01T03:01:46;-0.40;99.90
17425;DHT22;8830;50.978;5.058;2023-03-01T03:04:16;-0.40;99.90
17425;DHT22;8830;50.978;5.058;2023-03-01T03:06:43;-0.40;99.90
17425;DHT22;8830;50.978;5.058;2023-03-01T03:09:11;-0.40;99.90
17425;DHT22;8830;50.978;5.058;2023-03-01T03:11:38;-0.40;99.90
17425;DHT22;8830;50.978;5.058;2023-03-01T03:14:06;-0.10;99.90
17425;DHT22;8830;50.978;5.058;2023-03-01T03:16:41;-0.40;99.90
17425;DHT22;8830;50.978;5.058;2023-03-01T03:19:08;-0.40;99.90
17425;DHT22;8830;50.978;5.058;2023-03-01T03:21:35;-0.40;99.90
17425;DHT22;8830;50.978;5.058;2023-03-01T03:24:02;-0.40;99.90
17425;DHT22;8830;50.978;5.058;2023-03-01T03:26:30;-0.50;99.90
17425;DHT22;8830;50.978;5.058;2023-03-01T03:28:57;-0.50;99.90
17425;DHT22;8830;50.978;5.058;2023-03-01T03:31:24;-0.40;99.90
17425;DHT22;8830;50.978;5.058;2023-03-01T03:33:53;-0.10;99.90
17425;DHT22;8830;50.978;5.058;2023-03-01T03:36:21;-0.40;99.90
17425;DHT22;8830;50.978;5.058;2023-03-01T03:38:48;-0.40;99.90
17425;DHT22;8830;50.978;5.058;2023-03-01T03:41:16;0.90;99.90
17425;DHT22;8830;50.978;5.058;2023-03-01T03:43:43;-0.60;99.90
17425;DHT22;8830;50.978;5.058;2023-03-01T03:46:11;-0.60;99.90
17425;DHT22;8830;50.978;5.058;2023-03-01T03:48:41;0.10;99.90
17425;DHT22;8830;50.978;5.058;2023-03-01T03:51:12;-0.60;99.90
17425;DHT22;8830;50.978;5.058;2023-03-01T03:53:39;-0.60;99.90
17425;DHT22;8830;50.978;5.058;2023-03-01T03:56:07;-0.60;99.90
17425;DHT22;8830;50.978;5.058;2023-03-01T03:58:34;-0.70;99.90
17425;DHT22;8830;50.978;5.058;2023-03-01T04:03:30;-0.70;99.90
17425;DHT22;8830;50.978;5.058;2023-03-01T04:05:59;-0.70;99.90
17425;DHT22;8830;50.978;5.058;2023-03-01T04:08:28;-0.70;99.90
17425;DHT22;8830;50.978;5.058;2023-03-01T04:10:59;-0.80;99.90
17425;DHT22;8830;50.978;5.058;2023-03-01T04:13:46;-0.70;99.90
17425;DHT22;8830;50.978;5.058;2023-03-01T04:16:13;-0.70;99.90
17425;DHT22;8830;50.978;5.058;2023-03-01T04:18:40;-0.80;99.90
17425;DHT22;8830;50.978;5.058;2023-03-01T04:21:07;-0.80;99.90
17425;DHT22;8830;50.978;5.058;2023-03-01T04:23:35;-0.90;99.90
17425;DHT22;8830;50.978;5.058;2023-03-01T04:26:02;-0.60;99.90
17425;DHT22;8830;50.978;5.058;2023-03-01T04:28:30;-0.60;99.90
17425;DHT22;8830;50.978;5.058;2023-03-01T04:30:58;-0.40;99.90
17425;DHT22;8830;50.978;5.058;2023-03-01T04:33:30;-1.00;99.90
17425;DHT22;8830;50.978;5.058;2023-03-01T04:35:57;0.80;99.90
17425;DHT22;8830;50.978;5.058;2023-03-01T04:38:24;-1.00;99.90
17425;DHT22;8830;50.978;5.058;2023-03-01T04:40:52;-1.00;99.90
17425;DHT22;8830;50.978;5.058;2023-03-01T04:43:19;-1.00;99.90
17425;DHT22;8830;50.978;5.058;2023-03-01T04:45:46;-1.00;99.90
17425;DHT22;8830;50.978;5.058;2023-03-01T04:48:13;-1.00;99.90
17425;DHT22;8830;50.978;5.058;2023-03-01T04:50:40;-1.00;99.90
17425;DHT22;8830;50.978;5.058;2023-03-01T04:53:08;-1.00;99.90
17425;DHT22;8830;50.978;5.058;2023-03-01T04:55:35;-1.60;99.90
17425;DHT22;8830;50.978;5.058;2023-03-01T04:58:03;-1.00;99.90
17425;DHT22;8830;50.978;5.058;2023-03-01T05:00:30;-1.00;99.90
17425;DHT22;8830;50.978;5.058;2023-03-01T05:02:59;-1.10;99.90
17425;DHT22;8830;50.978;5.058;2023-03-01T05:05:29;-1.10;99.90
17425;DHT22;8830;50.978;5.058;2023-03-01T05:07:58;-1.10;99.90
17425;DHT22;8830;50.978;5.058;2023-03-01T05:10:26;-1.10;99.90
17425;DHT22;8830;50.978;5.058;2023-03-01T05:12:54;-1.10;99.90
17425;DHT22;8830;50.978;5.058;2023-03-01T05:15:24;-1.10;99.90
17425;DHT22;8830;50.978;5.058;2023-03-01T05:17:52;-1.10;99.90
17425;DHT22;8830;50.978;5.058;2023-03-01T05:20:20;-1.00;99.90
17425;DHT22;8830;50.978;5.058;2023-03-01T05:22:49;-1.00;99.90
17425;DHT22;8830;50.978;5.058;2023-03-01T05:25:16;-1.10;99.90
17425;DHT22;8830;50.978;5.058;2023-03-01T05:27:44;-1.10;99.90
17425;DHT22;8830;50.978;5.058;2023-03-01T05:30:12;-1.10;99.90
17425;DHT22;8830;50.978;5.058;2023-03-01T05:32:49;-1.20;99.90
17425;DHT22;8830;50.978;5.058;2023-03-01T05:35:21;1.00;99.90
17425;DHT22;8830;50.978;5.058;2023-03-01T05:37:49;0.40;99.90
17425;DHT22;8830;50.978;5.058;2023-03-01T05:40:18;-0.40;99.90
17425;DHT22;8830;50.978;5.058;2023-03-01T05:42:47;0.20;99.90
17425;DHT22;8830;50.978;5.058;2023-03-01T05:45:16;1.30;99.90
17425;DHT22;8830;50.978;5.058;2023-03-01T05:47:46;-1.10;99.90
17425;DHT22;8830;50.978;5.058;2023-03-01T05:50:15;0.60;99.90
17425;DHT22;8830;50.978;5.058;2023-03-01T05:52:47;-1.20;99.90
17425;DHT22;8830;50.978;5.058;2023-03-01T05:55:14;-1.10;99.90
17425;DHT22;8830;50.978;5.058;2023-03-01T05:57:42;-1.10;99.90
17425;DHT22;8830;50.978;5.058;2023-03-01T06:00:09;-0.70;99.90
17425;DHT22;8830;50.978;5.058;2023-03-01T06:02:37;-2.60;99.90
17425;DHT22;8830;50.978;5.058;2023-03-01T06:05:07;-1.20;99.90
17425;DHT22;8830;50.978;5.058;2023-03-01T06:07:34;-1.30;99.90
17425;DHT22;8830;50.978;5.058;2023-03-01T06:10:02;-1.30;99.90
17425;DHT22;8830;50.978;5.058;2023-03-01T06:12:30;-1.30;99.90
17425;DHT22;8830;50.978;5.058;2023-03-01T06:14:58;0.00;99.90
17425;DHT22;8830;50.978;5.058;2023-03-01T06:17:25;-1.40;99.90
17425;DHT22;8830;50.978;5.058;2023-03-01T06:22:21;-1.30;99.90
17425;DHT22;8830;50.978;5.058;2023-03-01T06:24:48;-1.40;99.90
17425;DHT22;8830;50.978;5.058;2023-03-01T06:27:15;-0.80;99.90
17425;DHT22;8830;50.978;5.058;2023-03-01T06:29:42;0.00;99.90
17425;DHT22;8830;50.978;5.058;2023-03-01T06:32:10;-1.30;99.90
17425;DHT22;8830;50.978;5.058;2023-03-01T06:34:37;-1.30;99.90
17425;DHT22;8830;50.978;5.058;2023-03-01T06:37:04;-1.30;99.90
17425;DHT22;8830;50.978;5.058;2023-03-01T06:39:33;-1.30;99.90
17425;DHT22;8830;50.978;5.058;2023-03-01T06:42:00;-1.30;99.90
17425;DHT22;8830;50.978;5.058;2023-03-01T06:44:27;-1.20;99.90
17425;DHT22;8830;50.978;5.058;2023-03-01T06:49:21;-0.80;99.90
17425;DHT22;8830;50.978;5.058;2023-03-01T06:51:48;-1.10;99.90
17425;DHT22;8830;50.978;5.058;2023-03-01T06:54:16;-0.50;99.90
17425;DHT22;8830;50.978;5.058;2023-03-01T06:56:46;-1.00;99.90
17425;DHT22;8830;50.978;5.058;2023-03-01T06:59:13;-1.00;99.90
17425;DHT22;8830;50.978;5.058;2023-03-01T07:04:07;-0.90;99.90
17425;DHT22;8830;50.978;5.058;2023-03-01T07:11:29;-0.70;99.90
17425;DHT22;8830;50.978;5.058;2023-03-01T07:13:57;1.10;99.90
17425;DHT22;8830;50.978;5.058;2023-03-01T07:16:25;3.40;99.90
17425;DHT22;8830;50.978;5.058;2023-03-01T07:18:52;2.20;99.90
17425;DHT22;8830;50.978;5.058;2023-03-01T07:21:19;3.90;99.90
17425;DHT22;8830;50.978;5.058;2023-03-01T07:23:47;4.00;99.90
17425;DHT22;8830;50.978;5.058;2023-03-01T07:26:14;4.50;99.90
17425;DHT22;8830;50.978;5.058;2023-03-01T07:28:42;4.90;99.90
17425;DHT22;8830;50.978;5.058;2023-03-01T07:31:10;5.40;99.90
17425;DHT22;8830;50.978;5.058;2023-03-01T07:33:37;5.60;99.90
17425;DHT22;8830;50.978;5.058;2023-03-01T07:36:05;5.50;99.90
17425;DHT22;8830;50.978;5.058;2023-03-01T07:38:34;5.80;99.90
17425;DHT22;8830;50.978;5.058;2023-03-01T07:41:03;6.20;99.90
17425;DHT22;8830;50.978;5.058;2023-03-01T07:43:31;7.20;99.90
17425;DHT22;8830;50.978;5.058;2023-03-01T07:45:59;6.60;99.90
17425;DHT22;8830;50.978;5.058;2023-03-01T07:48:28;7.10;99.90
17425;DHT22;8830;50.978;5.058;2023-03-01T07:50:57;7.10;99.90
17425;DHT22;8830;50.978;5.058;2023-03-01T07:53:25;7.90;99.90
17425;DHT22;8830;50.978;5.058;2023-03-01T07:56:00;7.50;99.90
17425;DHT22;8830;50.978;5.058;2023-03-01T07:58:27;7.70;99.90
17425;DHT22;8830;50.978;5.058;2023-03-01T08:00:54;7.50;99.90
17425;DHT22;8830;50.978;5.058;2023-03-01T08:03:21;7.60;99.90
17425;DHT22;8830;50.978;5.058;2023-03-01T08:05:50;7.50;99.90
17425;DHT22;8830;50.978;5.058;2023-03-01T08:10:48;7.50;99.90
17425;DHT22;8830;50.978;5.058;2023-03-01T08:13:14;7.50;99.90
17425;DHT22;8830;50.978;5.058;2023-03-01T08:15:41;8.00;99.90
17425;DHT22;8830;50.978;5.058;2023-03-01T08:18:08;8.10;99.90
17425;DHT22;8830;50.978;5.058;2023-03-01T08:20:35;8.40;99.90
17425;DHT22;8830;50.978;5.058;2023-03-01T08:23:04;7.90;99.90
17425;DHT22;8830;50.978;5.058;2023-03-01T08:25:31;8.00;99.90
17425;DHT22;8830;50.978;5.058;2023-03-01T08:27:59;7.70;99.90
17425;DHT22;8830;50.978;5.058;2023-03-01T08:30:26;7.30;99.90
17425;DHT22;8830;50.978;5.058;2023-03-01T08:32:53;7.40;99.90
17425;DHT22;8830;50.978;5.058;2023-03-01T08:35:20;7.40;99.90
17425;DHT22;8830;50.978;5.058;2023-03-01T08:37:47;9.60;99.90
17425;DHT22;8830;50.978;5.058;2023-03-01T08:40:16;6.80;99.90
17425;DHT22;8830;50.978;5.058;2023-03-01T08:42:44;5.70;99.90
17425;DHT22;8830;50.978;5.058;2023-03-01T08:45:12;4.20;99.90
17425;DHT22;8830;50.978;5.058;2023-03-01T08:47:39;4.20;99.90
17425;DHT22;8830;50.978;5.058;2023-03-01T08:50:07;4.70;99.90
17425;DHT22;8830;50.978;5.058;2023-03-01T08:52:34;4.20;99.90
17425;DHT22;8830;50.978;5.058;2023-03-01T08:55:01;4.20;99.90
17425;DHT22;8830;50.978;5.058;2023-03-01T08:57:31;4.00;99.90
17425;DHT22;8830;50.978;5.058;2023-03-01T08:59:57;4.00;99.90
17425;DHT22;8830;50.978;5.058;2023-03-01T09:04:53;3.80;99.90
17425;DHT22;8830;50.978;5.058;2023-03-01T09:07:19;3.70;99.90
17425;DHT22;8830;50.978;5.058;2023-03-01T09:09:46;4.20;99.90
17425;DHT22;8830;50.978;5.058;2023-03-01T09:12:13;3.70;99.90
17425;DHT22;8830;50.978;5.058;2023-03-01T09:14:41;3.60;99.90
17425;DHT22;8830;50.978;5.058;2023-03-01T09:17:08;3.60;99.90
17425;DHT22;8830;50.978;5.058;2023-03-01T09:22:03;3.60;99.90
17425;DHT22;8830;50.978;5.058;2023-03-01T09:24:30;6.70;99.90
17425;DHT22;8830;50.978;5.058;2023-03-01T09:31:52;3.60;99.90
17425;DHT22;8830;50.978;5.058;2023-03-01T09:36:49;3.80;99.90
17425;DHT22;8830;50.978;5.058;2023-03-01T09:39:16;3.90;99.90
17425;DHT22;8830;50.978;5.058;2023-03-01T09:41:47;4.60;99.90
17425;DHT22;8830;50.978;5.058;2023-03-01T09:44:24;4.00;99.90
17425;DHT22;8830;50.978;5.058;2023-03-01T09:46:55;4.00;99.90
17425;DHT22;8830;50.978;5.058;2023-03-01T09:49:26;3.90;99.90
17425;DHT22;8830;50.978;5.058;2023-03-01T09:51:59;3.90;99.90
17425;DHT22;8830;50.978;5.058;2023-03-01T09:54:26;4.10;99.90
17425;DHT22;8830;50.978;5.058;2023-03-01T09:57:17;4.20;99.90
17425;DHT22;8830;50.978;5.058;2023-03-01T09:59:54;4.20;99.90
17425;DHT22;8830;50.978;5.058;2023-03-01T10:02:30;4.80;99.90
17425;DHT22;8830;50.978;5.058;2023-03-01T10:05:09;4.20;99.90
17425;DHT22;8830;50.978;5.058;2023-03-01T10:07:44;4.30;99.90
17425;DHT22;8830;50.978;5.058;2023-03-01T10:10:23;4.30;99.90
17425;DHT22;8830;50.978;5.058;2023-03-01T10:12:53;4.50;99.90
17425;DHT22;8830;50.978;5.058;2023-03-01T10:15:28;4.50;99.90
17425;DHT22;8830;50.978;5.058;2023-03-01T10:18:02;4.50;99.90
17425;DHT22;8830;50.978;5.058;2023-03-01T10:20:39;4.60;99.90
17425;DHT22;8830;50.978;5.058;2023-03-01T10:23:10;4.60;99.90
17425;DHT22;8830;50.978;5.058;2023-03-01T10:25:47;4.50;99.90
17425;DHT22;8830;50.978;5.058;2023-03-01T10:28:17;4.50;99.90
17425;DHT22;8830;50.978;5.058;2023-03-01T10:30:46;4.50;99.90
17425;DHT22;8830;50.978;5.058;2023-03-01T10:33:18;4.50;99.90
17425;DHT22;8830;50.978;5.058;2023-03-01T10:35:47;4.50;99.90
17425;DHT22;8830;50.978;5.058;2023-03-01T10:38:15;4.50;99.90
17425;DHT22;8830;50.978;5.058;2023-03-01T10:40:53;4.50;99.90
17425;DHT22;8830;50.978;5.058;2023-03-01T10:43:24;4.50;99.90
17425;DHT22;8830;50.978;5.058;2023-03-01T10:45:51;7.30;99.90
17425;DHT22;8830;50.978;5.058;2023-03-01T10:48:21;4.70;99.90
17425;DHT22;8830;50.978;5.058;2023-03-01T10:51:05;4.80;99.90
17425;DHT22;8830;50.978;5.058;2023-03-01T10:53:34;4.90;99.90
17425;DHT22;8830;50.978;5.058;2023-03-01T10:56:04;4.90;99.90
17425;DHT22;8830;50.978;5.058;2023-03-01T10:58:33;4.90;99.90
17425;DHT22;8830;50.978;5.058;2023-03-01T11:01:03;5.80;99.90
17425;DHT22;8830;50.978;5.058;2023-03-01T11:03:34;5.00;99.90
17425;DHT22;8830;50.978;5.058;2023-03-01T11:06:12;5.00;99.90
17425;DHT22;8830;50.978;5.058;2023-03-01T11:08:47;5.00;99.90
17425;DHT22;8830;50.978;5.058;2023-03-01T11:11:33;5.10;99.90
17425;DHT22;8830;50.978;5.058;2023-03-01T11:14:04;5.30;99.90
17425;DHT22;8830;50.978;5.058;2023-03-01T11:16:35;5.20;99.90
17425;DHT22;8830;50.978;5.058;2023-03-01T11:19:19;5.10;99.90
17425;DHT22;8830;50.978;5.058;2023-03-01T11:22:00;5.20;99.90
17425;DHT22;8830;50.978;5.058;2023-03-01T11:24:34;5.40;99.90
17425;DHT22;8830;50.978;5.058;2023-03-01T11:27:07;5.40;99.90
17425;DHT22;8830;50.978;5.058;2023-03-01T11:29:38;5.50;99.90
17425;DHT22;8830;50.978;5.058;2023-03-01T11:32:08;5.50;99.90
17425;DHT22;8830;50.978;5.058;2023-03-01T11:34:44;5.40;99.90
17425;DHT22;8830;50.978;5.058;2023-03-01T11:37:21;5.30;99.90
17425;DHT22;8830;50.978;5.058;2023-03-01T11:39:56;5.40;99.90
17425;DHT22;8830;50.978;5.058;2023-03-01T11:42:30;5.50;99.90
17425;DHT22;8830;50.978;5.058;2023-03-01T11:45:05;5.50;99.90
17425;DHT22;8830;50.978;5.058;2023-03-01T11:47:52;5.50;99.90
17425;DHT22;8830;50.978;5.058;2023-03-01T11:50:38;5.60;99.90
17425;DHT22;8830;50.978;5.058;2023-03-01T11:53:26;5.60;99.90
17425;DHT22;8830;50.978;5.058;2023-03-01T11:56:13;5.60;99.90
17425;DHT22;8830;50.978;5.058;2023-03-01T11:58:54;6.10;99.90
17425;DHT22;8830;50.978;5.058;2023-03-01T12:01:38;6.30;99.90
17425;DHT22;8830;50.978;5.058;2023-03-01T12:04:27;3.80;99.90
17425;DHT22;8830;50.978;5.058;2023-03-01T12:07:00;5.70;99.90
17425;DHT22;8830;50.978;5.058;2023-03-01T12:09:44;5.70;99.90
17425;DHT22;8830;50.978;5.058;2023-03-01T12:12:28;5.80;99.90
17425;DHT22;8830;50.978;5.058;2023-03-01T12:15:24;6.10;99.90
17425;DHT22;8830;50.978;5.058;2023-03-01T12:20:51;6.00;99.90
17425;DHT22;8830;50.978;5.058;2023-03-01T12:23:38;6.00;99.90
17425;DHT22;8830;50.978;5.058;2023-03-01T12:26:14;6.00;99.90
17425;DHT22;8830;50.978;5.058;2023-03-01T12:28:52;7.60;99.90
17425;DHT22;8830;50.978;5.058;2023-03-01T12:31:47;6.20;99.90
17425;DHT22;8830;50.978;5.058;2023-03-01T12:34:33;6.20;99.90
17425;DHT22;8830;50.978;5.058;2023-03-01T12:37:21;6.20;99.90
17425;DHT22;8830;50.978;5.058;2023-03-01T12:40:03;6.10;99.90
17425;DHT22;8830;50.978;5.058;2023-03-01T12:42:44;6.10;99.90
17425;DHT22;8830;50.978;5.058;2023-03-01T12:45:34;6.10;99.90
17425;DHT22;8830;50.978;5.058;2023-03-01T12:48:18;6.20;99.90
17425;DHT22;8830;50.978;5.058;2023-03-01T12:50:59;6.30;99.90
17425;DHT22;8830;50.978;5.058;2023-03-01T12:53:29;6.40;99.90
17425;DHT22;8830;50.978;5.058;2023-03-01T12:56:02;6.50;99.90
17425;DHT22;8830;50.978;5.058;2023-03-01T12:58:33;6.50;99.90
17425;DHT22;8830;50.978;5.058;2023-03-01T13:01:09;6.70;99.90
17425;DHT22;8830;50.978;5.058;2023-03-01T13:06:57;6.80;99.90
17425;DHT22;8830;50.978;5.058;2023-03-01T13:09:30;6.70;99.90
17425;DHT22;8830;50.978;5.058;2023-03-01T13:12:02;6.80;99.90
17425;DHT22;8830;50.978;5.058;2023-03-01T13:14:36;6.90;99.90
17425;DHT22;8830;50.978;5.058;2023-03-01T13:19:31;6.90;99.90
17425;DHT22;8830;50.978;5.058;2023-03-01T13:22:28;6.90;99.90
17425;DHT22;8830;50.978;5.058;2023-03-01T13:25:18;6.90;99.90
17425;DHT22;8830;50.978;5.058;2023-03-01T13:27:48;6.90;99.90
17425;DHT22;8830;50.978;5.058;2023-03-01T13:30:41;7.00;99.90
17425;DHT22;8830;50.978;5.058;2023-03-01T13:33:43;6.80;99.90
17425;DHT22;8830;50.978;5.058;2023-03-01T13:36:11;6.80;99.90
17425;DHT22;8830;50.978;5.058;2023-03-01T13:39:02;6.80;99.90
17425;DHT22;8830;50.978;5.058;2023-03-01T13:41:49;6.90;99.90
17425;DHT22;8830;50.978;5.058;2023-03-01T13:44:22;6.90;99.90
17425;DHT22;8830;50.978;5.058;2023-03-01T13:49:23;6.80;99.90
17425;DHT22;8830;50.978;5.058;2023-03-01T13:51:51;7.00;99.90
17425;DHT22;8830;50.978;5.058;2023-03-01T14:01:52;7.00;99.90
17425;DHT22;8830;50.978;5.058;2023-03-01T14:09:20;7.00;99.90
17425;DHT22;8830;50.978;5.058;2023-03-01T14:12:22;7.10;99.90
17425;DHT22;8830;50.978;5.058;2023-03-01T14:14:56;7.10;99.90
17425;DHT22;8830;50.978;5.058;2023-03-01T14:17:46;7.10;99.90
17425;DHT22;8830;50.978;5.058;2023-03-01T14:30:23;7.30;99.90
17425;DHT22;8830;50.978;5.058;2023-03-01T14:32:56;7.30;99.90
17425;DHT22;8830;50.978;5.058;2023-03-01T14:35:27;7.30;99.90
17425;DHT22;8830;50.978;5.058;2023-03-01T14:42:56;7.30;99.90
17425;DHT22;8830;50.978;5.058;2023-03-01T14:45:26;7.40;99.90
17425;DHT22;8830;50.978;5.058;2023-03-01T14:50:25;7.30;99.90
17425;DHT22;8830;50.978;5.058;2023-03-01T14:52:55;7.30;99.90
17425;DHT22;8830;50.978;5.058;2023-03-01T14:55:30;7.30;99.90
17425;DHT22;8830;50.978;5.058;2023-03-01T15:00:27;7.40;99.90
17425;DHT22;8830;50.978;5.058;2023-03-01T15:05:27;7.30;99.90
17425;DHT22;8830;50.978;5.058;2023-03-01T15:25:23;7.20;99.90
17425;DHT22;8830;50.978;5.058;2023-03-01T15:27:56;7.20;99.90
17425;DHT22;8830;50.978;5.058;2023-03-01T15:30:27;7.20;99.90
17425;DHT22;8830;50.978;5.058;2023-03-01T15:33:16;8.80;99.90
17425;DHT22;8830;50.978;5.058;2023-03-01T15:38:28;7.20;99.90
17425;DHT22;8830;50.978;5.058;2023-03-01T15:43:44;7.20;99.90
17425;DHT22;8830;50.978;5.058;2023-03-01T15:46:18;7.30;99.90
17425;DHT22;8830;50.978;5.058;2023-03-01T15:53:43;7.10;99.90
17425;DHT22;8830;50.978;5.058;2023-03-01T16:01:12;7.00;99.90
17425;DHT22;8830;50.978;5.058;2023-03-01T16:06:09;6.90;99.90
17425;DHT22;8830;50.978;5.058;2023-03-01T16:28:19;6.70;99.90
17425;DHT22;8830;50.978;5.058;2023-03-01T16:30:46;6.60;99.90
17425;DHT22;8830;50.978;5.058;2023-03-01T16:40:38;6.40;99.90
17425;DHT22;8830;50.978;5.058;2023-03-01T16:45:35;6.40;99.90
17425;DHT22;8830;50.978;5.058;2023-03-01T17:10:16;5.80;99.90
17425;DHT22;8830;50.978;5.058;2023-03-01T17:12:43;5.80;99.90
17425;DHT22;8830;50.978;5.058;2023-03-01T17:20:06;5.60;99.90
17425;DHT22;8830;50.978;5.058;2023-03-01T17:25:01;5.50;99.90
17425;DHT22;8830;50.978;5.058;2023-03-01T17:27:29;5.40;99.90
17425;DHT22;8830;50.978;5.058;2023-03-01T17:39:50;5.30;99.90
17425;DHT22;8830;50.978;5.058;2023-03-01T17:42:17;5.20;99.90
17425;DHT22;8830;50.978;5.058;2023-03-01T17:52:09;5.00;99.90
17425;DHT22;8830;50.978;5.058;2023-03-01T17:54:36;5.00;99.90
17425;DHT22;8830;50.978;5.058;2023-03-01T17:59:31;4.90;99.90
17425;DHT22;8830;50.978;5.058;2023-03-01T18:02:04;4.70;99.90
17425;DHT22;8830;50.978;5.058;2023-03-01T18:06:59;4.70;99.90
17425;DHT22;8830;50.978;5.058;2023-03-01T18:21:50;4.50;99.90
17425;DHT22;8830;50.978;5.058;2023-03-01T18:34:10;4.50;99.90
17425;DHT22;8830;50.978;5.058;2023-03-01T18:39:07;4.50;99.90
17425;DHT22;8830;50.978;5.058;2023-03-01T19:16:10;4.30;99.90
17425;DHT22;8830;50.978;5.058;2023-03-01T19:21:06;4.30;99.90
17425;DHT22;8830;50.978;5.058;2023-03-01T19:43:21;4.10;99.90
17425;DHT22;8830;50.978;5.058;2023-03-01T19:53:15;3.90;99.90
17425;DHT22;8830;50.978;5.058;2023-03-01T19:58:10;3.80;99.90
17425;DHT22;8830;50.978;5.058;2023-03-01T20:00:37;3.70;99.90
17425;DHT22;8830;50.978;5.058;2023-03-01T20:03:10;3.70;99.90
17425;DHT22;8830;50.978;5.058;2023-03-01T20:05:38;3.80;99.90
17425;DHT22;8830;50.978;5.058;2023-03-01T20:08:05;3.70;99.90
17425;DHT22;8830;50.978;5.058;2023-03-01T20:15:30;3.60;99.90
17425;DHT22;8830;50.978;5.058;2023-03-01T20:22:53;3.50;99.90
17425;DHT22;8830;50.978;5.058;2023-03-01T20:30:16;3.40;99.90
17425;DHT22;8830;50.978;5.058;2023-03-01T20:35:12;3.40;99.90
17425;DHT22;8830;50.978;5.058;2023-03-01T20:40:10;3.30;99.90
17425;DHT22;8830;50.978;5.058;2023-03-01T20:42:37;3.30;99.90
17425;DHT22;8830;50.978;5.058;2023-03-01T20:54:57;3.00;99.90
17425;DHT22;8830;50.978;5.058;2023-03-01T21:07:14;3.10;99.90
17425;DHT22;8830;50.978;5.058;2023-03-01T21:09:40;3.00;99.90
17425;DHT22;8830;50.978;5.058;2023-03-01T21:12:10;3.10;99.90
17425;DHT22;8830;50.978;5.058;2023-03-01T21:14:38;3.00;99.90
17425;DHT22;8830;50.978;5.058;2023-03-01T21:19:37;3.10;99.90
17425;DHT22;8830;50.978;5.058;2023-03-01T21:29:32;3.10;99.90
17425;DHT22;8830;50.978;5.058;2023-03-01T21:31:59;3.10;99.90
17425;DHT22;8830;50.978;5.058;2023-03-01T21:34:26;4.00;99.90
17425;DHT22;8830;50.978;5.058;2023-03-01T21:39:20;3.00;99.90
17425;DHT22;8830;50.978;5.058;2023-03-01T21:41:54;5.20;99.90
17425;DHT22;8830;50.978;5.058;2023-03-01T21:44:22;2.90;99.90
17425;DHT22;8830;50.978;5.058;2023-03-01T21:46:51;3.00;99.90
17425;DHT22;8830;50.978;5.058;2023-03-01T21:51:47;3.00;99.90
17425;DHT22;8830;50.978;5.058;2023-03-01T21:54:16;2.90;99.90
17425;DHT22;8830;50.978;5.058;2023-03-01T21:56:44;2.90;99.90
17425;DHT22;8830;50.978;5.058;2023-03-01T21:59:17;2.90;99.90
17425;DHT22;8830;50.978;5.058;2023-03-01T22:06:44;2.80;99.90
17425;DHT22;8830;50.978;5.058;2023-03-01T22:09:14;2.80;99.90